Time;durP1;ratioP1;P1;durP2;ratioP2;P2;SDS_P1;SDS_P2;PMS_P1;PMS_P2;Temp;Humidity;BMP_temperature;BMP_pressure;BME280_temperature;BME280_humidity;BME280_pressure;Samples;Min_cycle;Max_cycle;Signal;HPM_P1;HPM_P2
2022/11/10 00:00:45;;;;;;;66.22;42.53;;;;;;;12.55;100.00;101090.78;5034538;28;20115;-74
2022/11/10 00:03:11;;;;;;;73.88;45.20;;;;;;;12.54;100.00;101088.31;5029712;28;20033;-73
2022/11/10 00:05:37;;;;;;;77.18;46.20;;;;;;;12.55;100.00;101088.16;5024159;28;20025;-73
2022/11/10 00:08:09;;;;;;;72.60;43.92;;;;;;;12.56;100.00;101092.44;5034624;28;20045;-73
2022/11/10 00:10:55;;;;;;;68.05;42.53;;;;;;;12.56;100.00;101088.97;5024633;28;20021;-73
2022/11/10 00:13:25;;;;;;;58.88;40.28;;;;;;;12.55;100.00;101085.53;5022660;28;20033;-73
2022/11/10 00:18:35;;;;;;;55.65;37.00;;;;;;;12.58;100.00;101102.75;5018728;28;20527;-73
2022/11/10 00:21:05;;;;;;;65.28;40.80;;;;;;;12.59;100.00;101089.53;5034282;28;20029;-73
2022/11/10 00:23:31;;;;;;;71.00;40.72;;;;;;;12.58;100.00;101093.09;5029066;28;20037;-73
2022/11/10 00:25:57;;;;;;;65.25;41.25;;;;;;;12.57;100.00;101088.84;5030306;28;20036;-73
2022/11/10 00:28:23;;;;;;;62.33;41.17;;;;;;;12.54;100.00;101086.50;5024017;28;20131;-73
2022/11/10 00:30:48;;;;;;;66.35;39.88;;;;;;;12.50;100.00;101090.38;5029343;28;20129;-73
2022/11/10 00:33:14;;;;;;;65.00;41.30;;;;;;;12.49;100.00;101093.13;5026257;28;20021;-73
2022/11/10 00:35:39;;;;;;;60.45;40.13;;;;;;;12.51;100.00;101088.59;5026928;28;20032;-73
2022/11/10 00:38:04;;;;;;;68.35;41.90;;;;;;;12.53;100.00;101089.28;5028570;28;20045;-73
2022/11/10 00:40:30;;;;;;;62.88;40.25;;;;;;;12.56;100.00;101088.97;5025267;28;20117;-72
2022/11/10 00:42:55;;;;;;;61.08;40.83;;;;;;;12.54;100.00;101094.34;5028550;28;20079;-72
2022/11/10 00:45:21;;;;;;;62.33;39.47;;;;;;;12.52;100.00;101090.22;5027804;28;20055;-72
2022/11/10 00:47:46;;;;;;;62.17;40.40;;;;;;;12.49;100.00;101080.06;5030093;28;20531;-72
2022/11/10 00:50:11;;;;;;;63.88;40.42;;;;;;;12.49;100.00;101088.72;5037647;28;20115;-72
2022/11/10 00:52:37;;;;;;;62.83;39.53;;;;;;;12.53;100.00;101090.09;5034599;28;20033;-72
2022/11/10 00:55:03;;;;;;;61.88;38.90;;;;;;;12.57;100.00;101093.25;5028787;28;20025;-72
2022/11/10 00:57:28;;;;;;;58.63;38.42;;;;;;;12.56;100.00;101089.81;5031466;28;20096;-72
2022/11/10 00:59:53;;;;;;;58.85;37.25;;;;;;;12.58;100.00;101094.91;5031908;28;20135;-72
2022/11/10 01:02:19;;;;;;;56.05;37.00;;;;;;;12.58;100.00;101097.50;5030350;28;20032;-72
2022/11/10 01:04:44;;;;;;;59.70;38.47;;;;;;;12.58;100.00;101095.72;5032647;28;20029;-72
2022/11/10 01:07:10;;;;;;;64.60;41.50;;;;;;;12.59;100.00;101099.16;5030807;28;20468;-71
2022/11/10 01:09:35;;;;;;;63.70;41.10;;;;;;;12.58;100.00;101098.34;5030281;28;20048;-72
2022/11/10 01:12:00;;;;;;;60.85;40.20;;;;;;;12.60;100.00;101106.03;5034217;28;20036;-72
2022/11/10 01:14:26;;;;;;;68.78;41.67;;;;;;;12.59;100.00;101105.22;5027055;28;20026;-72
2022/11/10 01:16:51;;;;;;;61.40;40.83;;;;;;;12.62;100.00;101104.09;5032219;28;20045;-72
2022/11/10 01:19:16;;;;;;;62.95;39.10;;;;;;;12.61;100.00;101100.66;5034322;28;20522;-73
2022/11/10 01:21:42;;;;;;;57.67;37.67;;;;;;;12.58;100.00;101098.34;5029874;28;20033;-73
2022/11/10 01:24:07;;;;;;;57.38;37.40;;;;;;;12.57;100.00;101098.47;5029350;28;20045;-73
2022/11/10 01:26:33;;;;;;;58.95;37.35;;;;;;;12.55;100.00;101093.38;5033326;28;20086;-73
2022/11/10 01:28:58;;;;;;;57.22;37.75;;;;;;;12.53;100.00;101100.53;5024092;28;20388;-74
2022/11/10 01:31:24;;;;;;;59.28;37.13;;;;;;;12.54;100.00;101096.97;5033119;28;20102;-73
2022/11/10 01:33:49;;;;;;;59.08;37.63;;;;;;;12.56;100.00;101100.25;5035164;28;20119;-73
2022/11/10 01:36:15;;;;;;;67.80;38.95;;;;;;;12.55;100.00;101106.47;5031969;28;20076;-73
2022/11/10 01:38:42;;;;;;;54.97;35.17;;;;;;;12.52;100.00;101104.13;5030986;28;20044;-73
2022/11/10 01:41:10;;;;;;;57.67;35.85;;;;;;;12.55;100.00;101101.22;5029868;28;20034;-73
2022/11/10 01:43:36;;;;;;;64.72;37.17;;;;;;;12.53;100.00;101100.53;5039976;28;20041;-74
2022/11/10 01:46:05;;;;;;;56.80;35.78;;;;;;;12.51;100.00;101105.09;5030840;28;20094;-74
2022/11/10 01:48:42;;;;;;;59.33;38.58;;;;;;;12.52;100.00;101095.47;5030983;28;20120;-74
2022/11/10 01:51:43;;;;;;;70.30;40.47;;;;;;;12.51;100.00;101089.41;5030123;28;20116;-73
2022/11/10 01:54:16;;;;;;;79.07;43.58;;;;;;;12.52;100.00;101100.69;5031692;28;20049;-73
2022/11/10 01:56:46;;;;;;;77.30;41.25;;;;;;;12.52;100.00;101092.84;5027970;28;20061;-73
2022/11/10 01:59:17;;;;;;;82.68;42.08;;;;;;;12.52;100.00;101098.91;5027781;28;20036;-73
2022/11/10 02:01:46;;;;;;;85.60;43.58;;;;;;;12.51;100.00;101094.63;5031830;28;20029;-73
2022/11/10 02:04:15;;;;;;;80.70;49.08;;;;;;;12.53;100.00;101094.50;5033037;28;20428;-74
2022/11/10 02:06:44;;;;;;;82.82;50.33;;;;;;;12.56;100.00;101099.44;5031702;28;20033;-73
2022/11/10 02:09:10;;;;;;;80.90;46.72;;;;;;;12.56;100.00;101099.44;5035141;28;20045;-68
2022/11/10 02:11:37;;;;;;;74.57;47.25;;;;;;;12.54;100.00;101090.91;5027312;28;20084;-73
2022/11/10 02:14:04;;;;;;;80.53;45.90;;;;;;;12.51;100.00;101099.88;5034417;28;20029;-73
2022/11/10 02:16:29;;;;;;;73.57;42.58;;;;;;;12.47;100.00;101095.06;5032804;28;20021;-74
2022/11/10 02:18:55;;;;;;;67.70;40.22;;;;;;;12.46;100.00;101093.41;5034923;28;20044;-73
2022/11/10 02:21:20;;;;;;;70.78;40.08;;;;;;;12.40;100.00;101097.41;5033773;28;20028;-72
2022/11/10 02:23:52;;;;;;;69.80;39.85;;;;;;;12.36;100.00;101088.19;5034578;28;20140;-72
2022/11/10 02:26:28;;;;;;;62.72;37.97;;;;;;;12.31;100.00;101090.41;5023998;28;20115;-72
2022/11/10 02:28:53;;;;;;;72.20;40.30;;;;;;;12.34;100.00;101094.53;5032566;28;20507;-73
2022/11/10 02:31:19;;;;;;;61.17;37.50;;;;;;;12.35;100.00;101091.78;5024219;28;20029;-72
2022/11/10 02:33:44;;;;;;;61.10;35.88;;;;;;;12.31;100.00;101090.41;5032442;28;20493;-72
2022/11/10 02:36:10;;;;;;;68.22;37.22;;;;;;;12.29;100.00;101093.16;5031048;28;20473;-72
2022/11/10 02:38:36;;;;;;;60.28;35.30;;;;;;;12.28;100.00;101090.72;5032063;28;20026;-72
2022/11/10 02:41:01;;;;;;;55.15;34.13;;;;;;;12.26;100.00;101093.47;5026283;28;20025;-72
2022/11/10 02:43:28;;;;;;;68.28;37.70;;;;;;;12.25;100.00;101097.03;5032392;28;20037;-72
2022/11/10 02:45:53;;;;;;;62.42;36.55;;;;;;;12.21;100.00;101100.91;5027462;28;20415;-72
2022/11/10 02:48:19;;;;;;;63.97;35.95;;;;;;;12.19;100.00;101100.22;5034891;28;20059;-72
2022/11/10 02:50:44;;;;;;;64.43;33.92;;;;;;;12.20;100.00;101099.25;5029898;28;20086;-72
2022/11/10 02:53:10;;;;;;;59.30;35.15;;;;;;;12.19;100.00;101097.59;5028260;28;20025;-73
2022/11/10 02:55:35;;;;;;;56.30;33.15;;;;;;;12.20;100.00;101103.66;5033502;28;20037;-72
2022/11/10 02:58:01;;;;;;;60.80;33.75;;;;;;;12.21;100.00;101103.50;5038544;28;20361;-73
2022/11/10 03:00:27;;;;;;;58.03;34.15;;;;;;;12.22;100.00;101110.38;5030836;28;20037;-73
2022/11/10 03:02:56;;;;;;;50.30;30.98;;;;;;;12.23;100.00;101104.19;5027874;28;20121;-72
2022/11/10 03:05:22;;;;;;;52.55;31.00;;;;;;;12.24;100.00;101105.84;5016445;28;20048;-72
2022/11/10 03:07:55;;;;;;;49.33;30.88;;;;;;;12.24;100.00;101100.63;5017990;28;20091;-72
2022/11/10 03:10:20;;;;;;;48.80;29.83;;;;;;;12.26;100.00;101103.91;5033803;28;20043;-72
2022/11/10 03:12:47;;;;;;;54.53;29.45;;;;;;;12.29;100.00;101097.56;5030292;28;20046;-72
2022/11/10 03:15:13;;;;;;;50.47;26.50;;;;;;;12.33;100.00;101111.16;5028015;28;20048;-73
2022/11/10 03:17:38;;;;;;;65.78;24.05;;;;;;;12.34;100.00;101112.81;5034256;28;20028;-72
2022/11/10 03:20:04;;;;;;;83.63;28.08;;;;;;;12.36;100.00;101103.88;5027269;28;20029;-72
2022/11/10 03:22:30;;;;;;;93.28;32.88;;;;;;;12.37;100.00;101117.75;5028541;28;20080;-72
2022/11/10 03:24:55;;;;;;;92.80;33.15;;;;;;;12.36;100.00;101113.50;5021045;28;20420;-72
2022/11/10 03:27:20;;;;;;;69.60;32.30;;;;;;;12.35;100.00;101111.84;5030370;28;20040;-72
2022/11/10 03:29:46;;;;;;;85.00;33.42;;;;;;;12.33;100.00;101112.00;5030275;28;20045;-72
2022/11/10 03:32:11;;;;;;;97.75;32.47;;;;;;;12.33;100.00;101108.56;5026760;28;20052;-72
2022/11/10 03:34:37;;;;;;;91.28;34.00;;;;;;;12.36;100.00;101116.13;5029341;28;20026;-72
2022/11/10 03:37:02;;;;;;;95.68;32.70;;;;;;;12.36;100.00;101106.50;5031281;28;20048;-72
2022/11/10 03:39:28;;;;;;;91.88;43.63;;;;;;;12.38;100.00;101108.97;5024693;28;20039;-71
2022/11/10 03:41:53;;;;;;;78.22;40.55;;;;;;;12.39;100.00;101113.22;5031280;28;20558;-72
2022/11/10 03:44:18;;;;;;;99.53;43.33;;;;;;;12.40;100.00;101114.88;5036801;28;20146;-72
2022/11/10 03:46:44;;;;;;;82.57;41.10;;;;;;;12.41;100.00;101117.34;5027488;28;20060;-72
2022/11/10 03:49:09;;;;;;;76.38;39.75;;;;;;;12.42;100.00;101120.78;5027609;28;20053;-72
2022/11/10 03:51:35;;;;;;;80.35;42.47;;;;;;;12.43;100.00;101119.81;5027915;28;20030;-72
2022/11/10 03:54:00;;;;;;;80.07;40.83;;;;;;;12.44;100.00;101121.47;5027841;28;20045;-72
2022/11/10 03:56:26;;;;;;;73.75;40.70;;;;;;;12.43;100.00;101115.41;5033233;28;20496;-72
2022/11/10 03:58:51;;;;;;;160.88;46.22;;;;;;;12.44;100.00;101118.84;5028637;28;20048;-72
2022/11/10 04:01:17;;;;;;;91.07;43.38;;;;;;;12.46;100.00;101124.78;5027460;28;20515;-72
2022/11/10 04:03:42;;;;;;;91.95;42.92;;;;;;;12.46;100.00;101122.16;5025617;28;20078;-72
2022/11/10 04:09:00;;;;;;;123.18;39.83;;;;;;;12.48;100.00;101122.84;5021392;28;20203;-72
2022/11/10 04:16:59;;;;;;;145.88;43.78;;;;;;;12.50;100.00;101126.13;5026899;28;20040;-72
2022/11/10 04:19:24;;;;;;;75.03;38.72;;;;;;;12.49;100.00;101125.31;5028284;28;20025;-72
2022/11/10 04:21:51;;;;;;;87.32;39.97;;;;;;;12.51;100.00;101128.63;5030782;28;20108;-73
2022/11/10 04:24:16;;;;;;;68.70;33.08;;;;;;;12.53;100.00;101131.09;5026149;28;20559;-72
2022/11/10 04:26:43;;;;;;;57.50;29.48;;;;;;;12.54;100.00;101130.94;5036622;28;20120;-72
2022/11/10 04:29:10;;;;;;;61.00;29.90;;;;;;;12.58;100.00;101134.09;5038669;28;20128;-72
2022/11/10 04:31:38;;;;;;;59.95;29.63;;;;;;;12.58;100.00;101137.53;5031588;28;20026;-72
2022/11/10 04:34:06;;;;;;;69.55;34.20;;;;;;;12.59;100.00;101138.38;5026280;28;20034;-72
2022/11/10 04:36:33;;;;;;;66.88;36.83;;;;;;;12.58;100.00;101141.94;5039692;28;20082;-72
2022/11/10 04:38:59;;;;;;;87.18;40.60;;;;;;;12.57;100.00;101148.13;5024608;28;20120;-73
2022/11/10 04:41:27;;;;;;;96.28;39.90;;;;;;;12.56;100.00;101143.88;5028193;28;20033;-72
2022/11/10 04:43:53;;;;;;;83.03;37.80;;;;;;;12.54;100.00;101145.81;5030650;28;20495;-72
2022/11/10 04:46:21;;;;;;;79.80;39.17;;;;;;;12.52;100.00;101135.50;5035067;28;20037;-72
2022/11/10 04:48:47;;;;;;;86.60;40.33;;;;;;;12.52;100.00;101139.91;5029826;28;20087;-73
2022/11/10 04:51:13;;;;;;;75.80;38.15;;;;;;;12.53;100.00;101141.53;5030926;28;20041;-72
2022/11/10 04:53:38;;;;;;;84.50;39.55;;;;;;;12.53;100.00;101141.53;5027689;28;20036;-72
2022/11/10 04:56:04;;;;;;;75.63;37.65;;;;;;;12.54;100.00;101148.41;5034740;28;20029;-72
2022/11/10 04:58:29;;;;;;;73.00;37.13;;;;;;;12.54;100.00;101157.09;5031844;28;20021;-72
2022/11/10 05:00:55;;;;;;;83.32;36.88;;;;;;;12.54;100.00;101153.66;5031770;28;20033;-72
2022/11/10 05:03:20;;;;;;;65.55;32.83;;;;;;;12.53;100.00;101157.22;5033272;28;20072;-71
2022/11/10 05:05:46;;;;;;;59.88;31.90;;;;;;;12.53;100.00;101155.44;5034319;28;20034;-73
2022/11/10 05:08:11;;;;;;;68.57;31.27;;;;;;;12.55;100.00;101158.72;5027378;28;20480;-73
2022/11/10 05:10:37;;;;;;;56.75;30.85;;;;;;;12.57;100.00;101162.03;5035121;28;20156;-73
2022/11/10 05:13:03;;;;;;;56.00;31.15;;;;;;;12.58;100.00;101168.09;5028897;28;20488;-69
2022/11/10 05:15:29;;;;;;;57.42;32.03;;;;;;;12.58;100.00;101171.53;5040339;28;20027;-68
2022/11/10 05:17:55;;;;;;;56.63;29.17;;;;;;;12.60;100.00;101171.38;5031475;28;20033;-74
2022/11/10 05:20:22;;;;;;;48.05;29.05;;;;;;;12.64;100.00;101180.59;5025818;28;20036;-73
2022/11/10 05:25:34;;;;;;;102.00;30.05;;;;;;;12.67;100.00;101185.56;5025076;28;20091;-72
2022/11/10 05:28:00;;;;;;;147.45;32.88;;;;;;;12.68;100.00;101192.44;5031394;28;20040;-73
2022/11/10 05:30:25;;;;;;;101.80;31.95;;;;;;;12.68;100.00;101191.59;5032484;28;20029;-73
2022/11/10 05:32:50;;;;;;;50.03;26.25;;;;;;;12.65;100.00;101190.09;5030943;28;20112;-75
2022/11/10 05:35:16;;;;;;;42.40;24.23;;;;;;;12.64;100.00;101191.06;5030576;28;20112;-73
2022/11/10 05:37:41;;;;;;;46.58;24.67;;;;;;;12.65;100.00;101190.09;5026456;28;20616;-74
2022/11/10 05:40:07;;;;;;;40.65;22.35;;;;;;;12.67;100.00;101190.78;5022911;28;20401;-72
2022/11/10 05:42:33;;;;;;;37.03;22.10;;;;;;;12.71;100.00;101199.16;5031969;28;20396;-72
2022/11/10 05:44:58;;;;;;;32.90;21.13;;;;;;;12.71;100.00;101200.00;5036092;28;20033;-72
2022/11/10 05:47:23;;;;;;;34.90;20.92;;;;;;;12.69;100.00;101207.16;5030673;28;20033;-72
2022/11/10 05:49:49;;;;;;;32.42;20.13;;;;;;;12.70;100.00;101216.66;5027276;28;20030;-72
2022/11/10 05:52:14;;;;;;;35.13;20.73;;;;;;;12.72;100.00;101213.91;5032045;28;20052;-72
2022/11/10 05:54:40;;;;;;;29.75;19.25;;;;;;;12.73;100.00;101215.53;5027034;28;20101;-72
2022/11/10 05:57:05;;;;;;;32.45;19.73;;;;;;;12.73;100.00;101221.59;5028345;28;20036;-72
2022/11/10 05:59:31;;;;;;;26.88;18.02;;;;;;;12.73;100.00;101218.97;5036895;28;20033;-72
2022/11/10 06:01:56;;;;;;;24.42;17.25;;;;;;;12.73;100.00;101220.78;5032479;28;20091;-73
2022/11/10 06:04:21;;;;;;;29.13;17.52;;;;;;;12.74;100.00;101228.47;5026089;28;20086;-73
2022/11/10 06:06:47;;;;;;;56.30;17.83;;;;;;;12.77;100.00;101228.16;5030124;28;20456;-73
2022/11/10 06:09:12;;;;;;;22.45;15.15;;;;;;;12.76;100.00;101242.22;5023681;28;20034;-73
2022/11/10 06:11:38;;;;;;;24.88;15.27;;;;;;;12.78;100.00;101239.44;5031405;28;20468;-72
2022/11/10 06:14:03;;;;;;;26.25;15.00;;;;;;;12.77;100.00;101241.25;5032709;28;20044;-72
2022/11/10 06:16:29;;;;;;;23.27;14.82;;;;;;;12.77;100.00;101251.69;5033719;28;20056;-73
2022/11/10 06:18:54;;;;;;;21.27;14.60;;;;;;;12.75;100.00;101251.03;5031512;28;20029;-73
2022/11/10 06:21:20;;;;;;;21.48;13.77;;;;;;;12.75;100.00;101261.50;5028531;28;20040;-72
2022/11/10 06:23:45;;;;;;;21.00;13.70;;;;;;;12.79;100.00;101268.06;5032877;28;20037;-72
2022/11/10 06:26:11;;;;;;;34.70;13.82;;;;;;;12.81;100.00;101271.38;5030856;28;20040;-73
2022/11/10 06:28:36;;;;;;;23.17;14.07;;;;;;;12.81;100.00;101276.59;5038402;28;20164;-73
2022/11/10 06:31:01;;;;;;;17.20;13.02;;;;;;;12.80;100.00;101282.81;5030367;28;20037;-72
2022/11/10 06:33:27;;;;;;;25.25;14.45;;;;;;;12.81;100.00;101287.06;5037419;28;20092;-72
2022/11/10 06:35:52;;;;;;;20.45;13.27;;;;;;;12.80;100.00;101289.81;5029640;28;20043;-73
2022/11/10 06:38:18;;;;;;;17.33;13.32;;;;;;;12.80;100.00;101290.66;5020147;28;20036;-73
2022/11/10 06:40:43;;;;;;;19.38;12.88;;;;;;;12.81;100.00;101289.69;5032681;28;20037;-73
2022/11/10 06:43:08;;;;;;;14.73;10.70;;;;;;;12.80;100.00;101295.88;5033055;28;20048;-73
2022/11/10 06:45:34;;;;;;;17.42;10.70;;;;;;;12.82;100.00;101304.41;5024124;28;20030;-73
2022/11/10 06:48:04;;;;;;;21.50;12.15;;;;;;;12.83;100.00;101306.06;5033460;28;20029;-73
2022/11/10 06:50:30;;;;;;;13.07;8.50;;;;;;;12.82;100.00;101312.25;5033603;28;20033;-73
2022/11/10 06:52:57;;;;;;;15.10;8.98;;;;;;;12.82;100.00;101314.88;5026309;28;20391;-72
2022/11/10 06:55:23;;;;;;;10.65;8.07;;;;;;;12.81;100.00;101313.22;5026738;28;20121;-73
2022/11/10 06:57:48;;;;;;;11.48;6.60;;;;;;;12.81;100.00;101315.00;5029037;28;20116;-73
2022/11/10 07:00:14;;;;;;;8.98;6.13;;;;;;;12.82;100.00;101320.09;5033844;28;20026;-72
2022/11/10 07:02:40;;;;;;;11.48;7.45;;;;;;;12.83;100.00;101326.16;5022266;28;20136;-73
2022/11/10 07:05:06;;;;;;;7.95;6.65;;;;;;;12.80;100.00;101321.19;5010838;28;20136;-73
2022/11/10 07:07:31;;;;;;;9.43;7.30;;;;;;;12.79;100.00;101325.59;5011562;28;20033;-73
2022/11/10 07:09:56;;;;;;;9.60;6.60;;;;;;;12.82;100.00;101324.50;5013042;28;20175;-73
2022/11/10 07:12:22;;;;;;;11.55;6.35;;;;;;;12.84;100.00;101328.63;5018402;28;20454;-73
2022/11/10 07:14:47;;;;;;;12.05;7.80;;;;;;;12.84;100.00;101333.88;5011145;28;20388;-74
2022/11/10 07:17:13;;;;;;;10.50;8.68;;;;;;;12.86;100.00;101336.34;5013918;28;20057;-74
2022/11/10 07:19:38;;;;;;;9.35;7.45;;;;;;;12.84;100.00;101344.31;5021217;28;20044;-75
2022/11/10 07:22:03;;;;;;;13.68;10.20;;;;;;;12.86;100.00;101349.41;5017158;28;20056;-74
2022/11/10 07:24:29;;;;;;;11.05;9.38;;;;;;;12.83;100.00;101347.91;5017611;28;20061;-74
2022/11/10 07:26:58;;;;;;;16.98;11.02;;;;;;;12.88;100.00;101355.34;5029109;28;20487;-74
2022/11/10 07:29:24;;;;;;;13.85;10.20;;;;;;;12.86;100.00;101358.09;5022584;28;20435;-74
2022/11/10 07:31:50;;;;;;;14.10;10.63;;;;;;;12.87;100.00;101362.38;5028236;28;20496;-73
2022/11/10 07:34:16;;;;;;;13.13;8.93;;;;;;;12.89;100.00;101362.22;5026119;28;20066;-73
2022/11/10 07:36:41;;;;;;;13.98;9.77;;;;;;;12.88;100.00;101366.63;5027967;28;20032;-72
2022/11/10 07:39:07;;;;;;;13.85;9.02;;;;;;;12.89;100.00;101370.91;5028212;28;20029;-72
2022/11/10 07:41:32;;;;;;;10.70;7.22;;;;;;;12.90;100.00;101375.16;5022410;28;20563;-73
2022/11/10 07:43:58;;;;;;;13.68;9.15;;;;;;;12.93;100.00;101382.75;5018346;28;20033;-72
2022/11/10 07:46:23;;;;;;;16.23;10.80;;;;;;;12.94;100.00;101373.94;5015857;28;20026;-72
2022/11/10 07:48:49;;;;;;;19.17;14.23;;;;;;;12.96;100.00;101379.84;5026219;28;20124;-72
2022/11/10 07:51:14;;;;;;;37.58;23.85;;;;;;;13.00;100.00;101390.03;5024522;28;20119;-73
2022/11/10 07:53:40;;;;;;;28.23;20.52;;;;;;;13.01;100.00;101391.69;5024876;28;20105;-73
2022/11/10 07:56:06;;;;;;;22.58;15.32;;;;;;;13.05;100.00;101398.31;5033650;28;20400;-73
2022/11/10 07:58:33;;;;;;;22.88;13.40;;;;;;;13.08;100.00;101403.25;5029221;28;20032;-72
2022/11/10 08:00:58;;;;;;;25.38;12.70;;;;;;;13.09;100.00;101410.16;5029331;28;20388;-73
2022/11/10 08:03:24;;;;;;;16.48;10.02;;;;;;;13.05;100.00;101419.22;5030412;28;20034;-73
2022/11/10 08:05:50;;;;;;;9.65;6.63;;;;;;;12.99;100.00;101414.53;5034098;28;20025;-72
2022/11/10 08:08:16;;;;;;;9.23;4.75;;;;;;;12.90;100.00;101413.56;5031729;28;20076;-73
2022/11/10 08:10:42;;;;;;;4.10;3.63;;;;;;;12.86;100.00;101420.88;5026544;28;20029;-73
2022/11/10 08:13:10;;;;;;;2.72;1.40;;;;;;;12.84;100.00;101428.00;5018837;28;20079;-72
2022/11/10 08:15:37;;;;;;;2.88;1.75;;;;;;;12.85;100.00;101426.22;5031427;28;20029;-72
2022/11/10 08:18:24;;;;;;;2.60;1.98;;;;;;;12.88;100.00;101436.41;5032907;28;20135;-72
2022/11/10 08:20:51;;;;;;;4.53;1.95;;;;;;;12.86;100.00;101435.72;5033481;28;20052;-72
2022/11/10 08:23:16;;;;;;;5.72;2.00;;;;;;;12.86;100.00;101441.78;5015103;28;20056;-73
2022/11/10 08:25:43;;;;;;;3.55;2.33;;;;;;;12.92;100.00;101436.00;5035971;28;20033;-73
2022/11/10 08:28:11;;;;;;;4.70;2.20;;;;;;;12.90;100.00;101442.34;5034479;28;20024;-72
2022/11/10 08:30:39;;;;;;;3.75;2.08;;;;;;;12.86;100.00;101446.19;5034961;28;20021;-73
2022/11/10 08:33:06;;;;;;;3.45;2.30;;;;;;;12.86;100.00;101436.56;5036702;28;20079;-73
2022/11/10 08:35:36;;;;;;;8.13;3.55;;;;;;;12.89;100.00;101446.75;5033089;28;20025;-72
2022/11/10 08:38:13;;;;;;;8.30;2.70;;;;;;;12.92;100.00;101453.50;5027141;28;20108;-73
2022/11/10 08:40:39;;;;;;;3.05;2.38;;;;;;;12.96;100.00;101458.31;5029349;28;20029;-72
2022/11/10 08:43:07;;;;;;;7.20;3.30;;;;;;;12.97;100.00;101461.78;5023618;28;20029;-72
2022/11/10 08:45:37;;;;;;;5.53;2.78;;;;;;;12.98;100.00;101466.03;5022368;28;20039;-72
2022/11/10 08:48:29;;;;;;;7.63;4.20;;;;;;;12.97;100.00;101467.00;5031449;28;20032;-72
2022/11/10 08:50:54;;;;;;;8.98;6.13;;;;;;;13.01;100.00;101468.38;5033722;28;20155;-72
2022/11/10 08:53:22;;;;;;;10.32;7.43;;;;;;;13.07;100.00;101473.06;5026571;28;20481;-73
2022/11/10 08:55:49;;;;;;;15.07;8.88;;;;;;;13.09;100.00;101475.56;5034021;28;20045;-73
2022/11/10 08:58:20;;;;;;;11.40;8.50;;;;;;;13.10;100.00;101485.06;5029807;28;20029;-73
2022/11/10 09:00:45;;;;;;;66.80;14.85;;;;;;;13.14;100.00;101486.44;5030762;28;20043;-73
2022/11/10 09:03:24;;;;;;;18.77;11.10;;;;;;;13.14;100.00;101489.88;5025369;28;20029;-73
2022/11/10 09:05:51;;;;;;;14.30;10.85;;;;;;;13.12;100.00;101488.38;5030163;28;20033;-73
2022/11/10 09:08:16;;;;;;;19.08;11.35;;;;;;;13.15;100.00;101491.53;5026683;28;20033;-73
2022/11/10 09:10:45;;;;;;;17.08;11.35;;;;;;;13.15;100.00;101498.56;5026609;28;20060;-73
2022/11/10 09:13:12;;;;;;;15.50;10.65;;;;;;;13.14;100.00;101508.19;5028356;28;20033;-73
2022/11/10 09:15:39;;;;;;;16.13;10.65;;;;;;;13.17;100.00;101515.81;5023051;28;20709;-74
2022/11/10 09:18:05;;;;;;;21.13;12.13;;;;;;;13.22;100.00;101526.72;5028091;28;20037;-73
2022/11/10 09:20:33;;;;;;;16.63;11.05;;;;;;;13.17;100.00;101523.66;5031763;28;20368;-73
2022/11/10 09:23:10;;;;;;;12.48;10.05;;;;;;;13.16;100.00;101535.09;5023927;28;20104;-73
2022/11/10 09:25:36;;;;;;;16.23;11.40;;;;;;;13.15;100.00;101529.97;5037004;28;20104;-73
2022/11/10 09:28:02;;;;;;;14.20;10.32;;;;;;;13.18;100.00;101545.44;5027765;28;20368;-71
2022/11/10 09:30:27;;;;;;;14.50;10.23;;;;;;;13.22;100.00;101544.19;5026653;28;20104;-71
2022/11/10 09:32:55;;;;;;;15.80;8.75;;;;;;;13.18;100.00;101546.25;5027556;28;20423;-71
2022/11/10 09:35:21;;;;;;;10.35;6.70;;;;;;;13.17;100.00;101554.25;5035689;28;20028;-72
2022/11/10 09:37:47;;;;;;;8.93;6.30;;;;;;;13.15;100.00;101558.75;5035353;28;20033;-71
2022/11/10 09:40:20;;;;;;;7.85;5.47;;;;;;;13.13;100.00;101571.13;5036104;28;20435;-72
2022/11/10 09:42:47;;;;;;;8.52;4.40;;;;;;;13.10;100.00;101574.84;5031538;28;20022;-72
2022/11/10 09:45:34;;;;;;;3.05;1.60;;;;;;;12.97;100.00;101571.63;5029599;28;20120;-71
2022/11/10 09:48:12;;;;;;;4.10;0.93;;;;;;;12.94;100.00;101580.56;5026906;28;20383;-71
2022/11/10 09:50:49;;;;;;;4.95;0.93;;;;;;;12.94;100.00;101574.50;5035570;28;20399;-72
2022/11/10 09:53:23;;;;;;;2.58;1.02;;;;;;;12.94;100.00;101591.03;5024902;28;20523;-71
2022/11/10 09:55:53;;;;;;;3.83;1.40;;;;;;;12.99;100.00;101589.81;5021746;28;20044;-72
2022/11/10 09:58:25;;;;;;;3.65;1.90;;;;;;;13.01;100.00;101585.28;5025866;28;20030;-72
2022/11/10 10:01:12;;;;;;;6.25;2.17;;;;;;;13.02;100.00;101592.16;5033988;28;20036;-71
2022/11/10 10:03:47;;;;;;;2.72;1.50;;;;;;;13.02;100.00;101593.00;5021279;28;20369;-71
2022/11/10 10:06:14;;;;;;;2.13;0.88;;;;;;;12.99;100.00;101602.91;5024095;28;20038;-72
2022/11/10 10:08:42;;;;;;;3.60;1.27;;;;;;;12.98;100.00;101596.00;5024221;28;20030;-71
2022/11/10 10:11:23;;;;;;;2.75;1.65;;;;;;;13.01;100.00;101607.03;5018293;28;20333;-72
2022/11/10 10:14:08;;;;;;;5.40;1.50;;;;;;;12.98;100.00;101607.28;5027464;28;20025;-71
2022/11/10 10:16:43;;;;;;;7.45;4.63;;;;;;;13.07;100.00;101613.53;5024020;28;20096;-71
2022/11/10 10:19:37;;;;;;;9.80;5.38;;;;;;;13.14;100.00;101617.28;5031856;28;20433;-71
2022/11/10 10:22:22;;;;;;;12.90;7.53;;;;;;;13.25;100.00;101625.03;5028266;28;20044;-71
2022/11/10 10:24:52;;;;;;;16.25;8.05;;;;;;;13.31;100.00;101624.50;5028688;28;20045;-70
2022/11/10 10:27:24;;;;;;;19.67;10.32;;;;;;;13.35;100.00;101623.25;5034197;28;20041;-70
2022/11/10 10:29:50;;;;;;;20.02;9.60;;;;;;;13.39;100.00;101627.28;5038247;28;20084;-70
2022/11/10 10:32:17;;;;;;;28.73;9.57;;;;;;;13.39;100.00;101626.44;5030165;28;20033;-71
2022/11/10 10:34:44;;;;;;;16.88;10.43;;;;;;;13.41;100.00;101630.59;5024124;28;20053;-71
2022/11/10 10:37:20;;;;;;;15.20;9.52;;;;;;;13.40;100.00;101623.69;5031699;28;20034;-70
2022/11/10 10:39:49;;;;;;;18.98;8.98;;;;;;;13.40;100.00;101633.34;5027581;28;20476;-71
2022/11/10 10:42:35;;;;;;;14.68;8.45;;;;;;;13.43;100.00;101639.13;5030924;28;20064;-71
2022/11/10 10:45:19;;;;;;;;;;;;;;;13.35;100.00;101644.22;5030301;28;20033;-71
2022/11/10 10:47:47;;;;;;;26.45;10.88;;;;;;;13.44;100.00;101640.78;5031137;28;20338;-70
2022/11/10 10:50:22;;;;;;;20.55;11.13;;;;;;;13.50;100.00;101644.66;5027560;28;20042;-69
2022/11/10 10:53:18;;;;;;;21.65;12.73;;;;;;;13.56;100.00;101639.72;5027463;28;20489;-70
2022/11/10 10:56:06;;;;;;;25.27;13.05;;;;;;;13.63;100.00;101644.41;5019046;28;20032;-71
2022/11/10 10:58:52;;;;;;;17.27;10.40;;;;;;;13.64;100.00;101644.28;5021367;28;20033;-71
2022/11/10 11:01:23;;;;;;;19.10;10.10;;;;;;;13.70;100.00;101642.91;5025636;28;20072;-71
2022/11/10 11:03:51;;;;;;;16.92;9.70;;;;;;;13.74;100.00;101652.94;5029034;28;20040;-70
2022/11/10 11:06:20;;;;;;;16.38;9.68;;;;;;;13.76;100.00;101651.03;5031264;28;20326;-70
2022/11/10 11:09:13;;;;;;;20.02;9.35;;;;;;;13.71;100.00;101653.22;5021325;28;20108;-70
2022/11/10 11:11:42;;;;;;;18.35;9.27;;;;;;;13.77;100.00;101662.34;5031664;28;20017;-70
2022/11/10 11:14:21;;;;;;;14.73;9.13;;;;;;;13.78;100.00;101658.75;5030185;28;20124;-70
2022/11/10 11:16:48;;;;;;;16.33;10.15;;;;;;;13.82;100.00;101663.59;5031058;28;20025;-71
2022/11/10 11:19:14;;;;;;;16.52;11.02;;;;;;;13.87;100.00;101664.00;5030604;28;20380;-71
2022/11/10 11:21:55;;;;;;;22.35;11.00;;;;;;;13.89;100.00;101661.25;5030670;28;20025;-71